createdAt,value
2022-07-27T00:00:27.034Z,0
2022-07-27T00:01:27.702Z,0
2022-07-27T00:02:27.215Z,0
2022-07-27T00:03:27.194Z,0
2022-07-27T00:04:27.697Z,0
2022-07-27T00:05:26.681Z,0
2022-07-27T00:06:27.181Z,0
2022-07-27T00:07:26.689Z,0
2022-07-27T00:08:26.915Z,0
2022-07-27T00:09:26.901Z,0
2022-07-27T00:10:27.154Z,0
2022-07-27T00:11:26.364Z,0
2022-07-27T00:12:26.880Z,0
2022-07-27T00:13:26.615Z,0
2022-07-27T00:14:26.857Z,0
2022-07-27T00:15:27.161Z,0
2022-07-27T00:16:27.236Z,0
2022-07-27T00:17:26.844Z,0
2022-07-27T00:18:26.833Z,0
2022-07-27T00:19:27.088Z,0
2022-07-27T00:20:34.203Z,0
2022-07-27T00:21:27.743Z,0
2022-07-27T00:22:27.067Z,0
2022-07-27T00:23:27.082Z,0
2022-07-27T00:24:27.049Z,0
2022-07-27T00:25:26.527Z,0
2022-07-27T00:26:27.077Z,0
2022-07-27T00:27:26.775Z,0
2022-07-27T00:28:27.029Z,0
2022-07-27T00:29:26.759Z,0
2022-07-27T00:30:26.758Z,0
2022-07-27T00:31:27.555Z,0
2022-07-27T00:32:26.740Z,0
2022-07-27T00:33:26.798Z,0
2022-07-27T00:34:27.006Z,0
2022-07-27T00:35:26.765Z,0
2022-07-27T00:36:26.980Z,0
2022-07-27T00:37:26.706Z,0
2022-07-27T00:38:26.717Z,0
2022-07-27T00:39:26.708Z,0
2022-07-27T00:40:27.461Z,0
2022-07-27T00:41:26.424Z,0
2022-07-27T00:42:26.163Z,0
2022-07-27T00:43:26.922Z,0
2022-07-27T00:44:26.916Z,0
2022-07-27T00:45:26.398Z,0
2022-07-27T00:46:26.826Z,0
2022-07-27T00:47:26.889Z,0
2022-07-27T00:48:29.932Z,0
2022-07-27T00:49:26.978Z,0
2022-07-27T00:50:26.729Z,0
2022-07-27T00:51:26.615Z,0
2022-07-27T00:52:26.616Z,0
2022-07-27T00:53:26.975Z,0
2022-07-27T00:54:26.599Z,0
2022-07-27T00:55:27.193Z,0
2022-07-27T00:56:26.842Z,0
2022-07-27T00:57:26.578Z,0
2022-07-27T00:58:26.561Z,0
2022-07-27T00:59:26.563Z,0
2022-07-27T01:00:28.873Z,0
2022-07-27T01:01:27.015Z,0
2022-07-27T01:02:31.168Z,0
2022-07-27T01:03:34.012Z,0
2022-07-27T01:04:29.546Z,0
2022-07-27T01:05:42.813Z,0
2022-07-27T01:06:36.563Z,0
2022-07-27T01:07:28.383Z,0
2022-07-27T01:08:26.533Z,0
2022-07-27T01:09:26.759Z,0
2022-07-27T01:10:26.487Z,0
2022-07-27T01:11:26.220Z,0
2022-07-27T01:12:26.738Z,0
2022-07-27T01:13:26.729Z,0
2022-07-27T01:14:33.421Z,0
2022-07-27T01:15:26.465Z,0
2022-07-27T01:16:26.973Z,0
2022-07-27T01:17:26.450Z,0
2022-07-27T01:18:26.725Z,0
2022-07-27T01:19:26.171Z,0
2022-07-27T01:20:26.423Z,0
2022-07-27T01:21:26.856Z,0
2022-07-27T01:22:26.667Z,0
2022-07-27T01:23:26.667Z,0
2022-07-27T01:24:26.664Z,0
2022-07-27T01:25:26.656Z,0
2022-07-27T01:26:26.128Z,0
2022-07-27T01:27:26.402Z,0
2022-07-27T01:28:27.340Z,0
2022-07-27T01:29:26.619Z,0
2022-07-27T01:30:26.649Z,0
2022-07-27T01:31:26.879Z,0
2022-07-27T01:32:26.946Z,0
2022-07-27T01:33:26.366Z,0
2022-07-27T01:34:58.153Z,0
2022-07-27T01:35:27.694Z,0
2022-07-27T01:36:26.323Z,0
2022-07-27T01:37:26.314Z,0
2022-07-27T01:38:25.788Z,0
2022-07-27T01:39:26.550Z,0
2022-07-27T01:40:26.546Z,0
2022-07-27T01:41:26.277Z,0
2022-07-27T01:42:26.862Z,0
2022-07-27T01:43:26.539Z,0
2022-07-27T01:44:26.262Z,0
2022-07-27T01:45:26.321Z,0
2022-07-27T01:46:26.900Z,0
2022-07-27T01:47:26.494Z,0
2022-07-27T01:48:27.264Z,0
2022-07-27T01:49:27.264Z,0
2022-07-27T01:50:26.229Z,0
2022-07-27T01:51:25.961Z,0
2022-07-27T01:52:25.959Z,0
2022-07-27T01:53:25.946Z,0
2022-07-27T01:54:25.964Z,0
2022-07-27T01:55:26.183Z,0
2022-07-27T01:56:26.454Z,0
2022-07-27T01:57:26.176Z,0
2022-07-27T01:58:25.905Z,0
2022-07-27T01:59:26.389Z,0
2022-07-27T02:00:25.936Z,0
2022-07-27T02:01:26.715Z,0
2022-07-27T02:02:25.632Z,0
2022-07-27T02:03:26.391Z,0
2022-07-27T02:04:26.415Z,0
2022-07-27T02:05:26.483Z,0
2022-07-27T02:06:26.220Z,0
2022-07-27T02:07:25.849Z,0
2022-07-27T02:08:26.104Z,0
2022-07-27T02:09:26.351Z,0
2022-07-27T02:10:26.088Z,0
2022-07-27T02:11:26.093Z,0
2022-07-27T02:12:26.074Z,0
2022-07-27T02:13:32.390Z,0
2022-07-27T02:14:28.172Z,0
2022-07-27T02:15:28.074Z,0
2022-07-27T02:16:29.349Z,0
2022-07-27T02:17:32.070Z,0
2022-07-27T02:18:45.519Z,0
2022-07-27T02:19:27.801Z,0
2022-07-27T02:20:25.771Z,0
2022-07-27T02:21:25.776Z,0
2022-07-27T02:22:26.006Z,0
2022-07-27T02:23:26.255Z,0
2022-07-27T02:24:25.743Z,0
2022-07-27T02:25:25.988Z,0
2022-07-27T02:26:26.243Z,0
2022-07-27T02:27:25.979Z,0
2022-07-27T02:28:25.724Z,0
2022-07-27T02:29:26.219Z,0
2022-07-27T02:30:27.577Z,0
2022-07-27T02:31:25.976Z,0
2022-07-27T02:32:26.060Z,0
2022-07-27T02:33:28.509Z,0
2022-07-27T02:34:26.182Z,0
2022-07-27T02:35:29.105Z,0
2022-07-27T02:36:25.685Z,0
2022-07-27T02:37:25.957Z,0
2022-07-27T02:38:25.747Z,0
2022-07-27T02:39:25.898Z,0
2022-07-27T02:40:26.150Z,0
2022-07-27T02:41:26.151Z,0
2022-07-27T02:42:25.871Z,0
2022-07-27T02:43:27.593Z,0
2022-07-27T02:44:26.122Z,0
2022-07-27T02:45:25.856Z,0
2022-07-27T02:46:26.565Z,0
2022-07-27T02:47:25.586Z,0
2022-07-27T02:48:26.111Z,0
2022-07-27T02:49:28.584Z,0
2022-07-27T02:50:26.076Z,0
2022-07-27T02:51:25.808Z,0
2022-07-27T02:52:25.813Z,0
2022-07-27T02:53:25.588Z,0
2022-07-27T02:54:26.048Z,0
2022-07-27T02:55:26.042Z,0
2022-07-27T02:56:33.923Z,0
2022-07-27T02:57:25.520Z,0
2022-07-27T02:58:25.507Z,0
2022-07-27T02:59:26.025Z,0
2022-07-27T03:00:25.511Z,0
2022-07-27T03:01:26.265Z,0
2022-07-27T03:02:26.007Z,0
2022-07-27T03:03:36.240Z,0
2022-07-27T03:04:26.140Z,0
2022-07-27T03:05:25.973Z,0
2022-07-27T03:06:25.713Z,0
2022-07-27T03:07:25.952Z,0
2022-07-27T03:08:25.688Z,0
2022-07-27T03:09:37.475Z,0
2022-07-27T03:10:25.433Z,0
2022-07-27T03:11:25.934Z,0
2022-07-27T03:12:25.404Z,0
2022-07-27T03:13:25.658Z,0
2022-07-27T03:14:25.902Z,0
2022-07-27T03:15:28.461Z,0
2022-07-27T03:16:26.090Z,0
2022-07-27T03:17:25.641Z,0
2022-07-27T03:18:25.613Z,0
2022-07-27T03:19:32.111Z,0
2022-07-27T03:20:25.358Z,0
2022-07-27T03:21:28.445Z,0
2022-07-27T03:22:25.342Z,0
2022-07-27T03:23:25.341Z,0
2022-07-27T03:24:25.318Z,0
2022-07-27T03:25:25.857Z,0
2022-07-27T03:26:25.315Z,0
2022-07-27T03:27:25.554Z,0
2022-07-27T03:28:25.314Z,0
2022-07-27T03:29:25.592Z,0
2022-07-27T03:30:25.793Z,0
2022-07-27T03:31:25.994Z,0
2022-07-27T03:32:25.270Z,0
2022-07-27T03:50:18.463Z,0
2022-07-27T03:51:18.186Z,0
2022-07-27T03:52:25.204Z,0
2022-07-27T03:53:18.431Z,0
2022-07-27T03:54:17.981Z,0
2022-07-27T03:55:17.482Z,5
2022-07-27T03:56:18.155Z,5
2022-07-27T03:57:18.374Z,5
2022-07-27T03:58:18.231Z,5
2022-07-27T03:59:19.903Z,5
2022-07-27T04:00:18.105Z,5
2022-07-27T04:01:18.463Z,5
2022-07-27T04:02:18.412Z,5
2022-07-27T04:03:18.320Z,5
2022-07-27T04:04:18.322Z,10
2022-07-27T04:05:18.066Z,10
2022-07-27T04:06:18.044Z,10
2022-07-27T04:07:18.037Z,10
2022-07-27T04:08:18.040Z,10
2022-07-27T04:09:23.535Z,10
2022-07-27T04:10:18.814Z,10
2022-07-27T04:11:23.559Z,10
2022-07-27T04:12:22.548Z,10
2022-07-27T04:13:20.226Z,10
2022-07-27T04:14:19.983Z,5
2022-07-27T04:15:18.006Z,5
2022-07-27T04:16:18.885Z,5
2022-07-27T04:17:59.958Z,5
2022-07-27T04:18:17.433Z,5
2022-07-27T04:19:19.477Z,5
2022-07-27T04:20:19.433Z,5
2022-07-27T04:21:17.663Z,5
2022-07-27T04:22:17.654Z,5
2022-07-27T04:23:17.908Z,5
2022-07-27T04:24:17.995Z,5
2022-07-27T04:25:17.631Z,5
2022-07-27T04:26:19.172Z,5
2022-07-27T04:27:17.884Z,5
2022-07-27T04:28:17.640Z,5
2022-07-27T04:29:25.253Z,5
2022-07-27T04:30:19.207Z,5
2022-07-27T04:31:18.579Z,5
2022-07-27T04:32:18.098Z,5
2022-07-27T04:33:18.088Z,5
2022-07-27T04:34:17.821Z,10
2022-07-27T04:35:20.273Z,10
2022-07-27T04:36:17.811Z,10
2022-07-27T04:37:17.547Z,10
2022-07-27T04:38:17.544Z,10
2022-07-27T04:39:19.311Z,15
2022-07-27T04:40:17.796Z,15
2022-07-27T04:41:17.509Z,15
2022-07-27T04:42:18.035Z,15
2022-07-27T04:43:17.757Z,15
2022-07-27T04:44:17.752Z,15
2022-07-27T04:45:18.638Z,15
2022-07-27T04:46:26.028Z,15
2022-07-27T04:47:17.464Z,15
2022-07-27T04:48:17.986Z,15
2022-07-27T04:49:19.963Z,20
2022-07-27T04:50:18.056Z,20
2022-07-27T04:51:18.331Z,20
2022-07-27T04:52:17.950Z,25
2022-07-27T04:53:17.936Z,25
2022-07-27T04:54:17.168Z,30
2022-07-27T04:55:17.678Z,30
2022-07-27T04:56:20.649Z,25
2022-07-27T04:57:17.397Z,30
2022-07-27T04:58:17.914Z,25
2022-07-27T04:59:18.914Z,25
2022-07-27T05:00:17.631Z,25
2022-07-27T05:01:18.357Z,20
2022-07-27T05:02:18.029Z,20
2022-07-27T05:03:17.350Z,20
2022-07-27T05:04:18.286Z,20
2022-07-27T05:05:17.850Z,25
2022-07-27T05:06:17.342Z,25
2022-07-27T05:07:17.330Z,30
2022-07-27T05:08:17.314Z,30
2022-07-27T05:09:24.637Z,30
2022-07-27T05:10:23.966Z,30
2022-07-27T05:11:17.301Z,35
2022-07-27T05:12:17.792Z,35
2022-07-27T05:13:17.557Z,30
2022-07-27T05:14:21.954Z,30
2022-07-27T05:15:17.778Z,25
2022-07-27T05:16:18.134Z,30
2022-07-27T05:17:16.993Z,30
2022-07-27T05:18:17.499Z,30
2022-07-27T05:19:18.282Z,30
2022-07-27T05:20:17.485Z,40
2022-07-27T05:21:17.739Z,45
2022-07-27T05:22:17.541Z,45
2022-07-27T05:23:17.647Z,50
2022-07-27T05:24:19.855Z,55
2022-07-27T05:25:17.717Z,60
2022-07-27T05:26:17.191Z,65
2022-07-27T05:27:17.432Z,65
2022-07-27T05:28:17.674Z,65
2022-07-27T05:29:18.941Z,65
2022-07-27T05:30:20.991Z,65
2022-07-27T05:31:17.527Z,65
2022-07-27T05:32:17.925Z,65
2022-07-27T05:33:17.394Z,65
2022-07-27T05:34:17.637Z,65
2022-07-27T05:35:17.623Z,65
2022-07-27T05:36:17.387Z,65
2022-07-27T05:37:17.098Z,65
2022-07-27T05:38:17.091Z,75
2022-07-27T05:39:24.694Z,80
2022-07-27T05:40:17.095Z,80
2022-07-27T05:41:16.835Z,75
2022-07-27T05:42:17.326Z,75
2022-07-27T05:43:17.060Z,75
2022-07-27T05:44:17.563Z,75
2022-07-27T05:45:17.339Z,80
2022-07-27T05:46:17.679Z,80
2022-07-27T05:47:20.974Z,80
2022-07-27T05:48:17.291Z,80
2022-07-27T05:49:19.285Z,75
2022-07-27T05:50:17.272Z,65
2022-07-27T05:51:17.240Z,50
2022-07-27T05:52:19.432Z,50
2022-07-27T05:53:17.485Z,50
2022-07-27T05:54:17.245Z,45
2022-07-27T05:55:16.957Z,50
2022-07-27T05:56:17.214Z,55
2022-07-27T05:57:18.166Z,60
2022-07-27T05:58:16.702Z,65
2022-07-27T05:59:18.229Z,65
2022-07-27T06:00:17.464Z,65
2022-07-27T06:01:17.463Z,65
2022-07-27T06:02:16.916Z,70
2022-07-27T06:03:17.309Z,65
2022-07-27T06:04:21.848Z,70
2022-07-27T06:05:24.520Z,65
2022-07-27T06:06:17.145Z,55
2022-07-27T06:07:17.131Z,50
2022-07-27T06:08:17.373Z,45
2022-07-27T06:09:18.364Z,40
2022-07-27T06:10:18.215Z,40
2022-07-27T06:11:16.843Z,35
2022-07-27T06:12:17.101Z,30
2022-07-27T06:13:17.336Z,30
2022-07-27T06:14:17.335Z,30
2022-07-27T06:15:17.063Z,30
2022-07-27T06:16:17.802Z,30
2022-07-27T06:17:17.993Z,35
2022-07-27T06:18:17.080Z,35
2022-07-27T06:19:18.497Z,30
2022-07-27T06:20:16.513Z,30
2022-07-27T06:21:16.515Z,35
2022-07-27T06:22:17.024Z,35
2022-07-27T06:23:17.980Z,40
2022-07-27T06:24:16.256Z,40
2022-07-27T06:25:16.732Z,45
2022-07-27T06:26:17.241Z,45
2022-07-27T06:27:16.712Z,45
2022-07-27T06:28:16.453Z,35
2022-07-27T06:29:20.861Z,40
2022-07-27T06:30:17.310Z,35
2022-07-27T06:31:20.103Z,45
2022-07-27T06:32:18.624Z,50
2022-07-27T06:33:19.014Z,50
2022-07-27T06:34:22.203Z,55
2022-07-27T06:35:21.254Z,60
2022-07-27T06:36:17.159Z,60
2022-07-27T06:37:16.897Z,60
2022-07-27T06:38:17.160Z,70
2022-07-27T06:39:18.288Z,75
2022-07-27T06:40:16.644Z,80
2022-07-27T06:41:16.858Z,90
2022-07-27T06:42:16.844Z,90
2022-07-27T06:43:17.093Z,100
2022-07-27T06:44:17.112Z,110
2022-07-27T06:45:16.804Z,120
2022-07-27T06:46:17.267Z,125
2022-07-27T06:47:16.851Z,130
2022-07-27T06:48:16.796Z,130
2022-07-27T06:49:19.409Z,125
2022-07-27T06:50:17.041Z,125
2022-07-27T06:51:17.183Z,125
2022-07-27T06:52:16.531Z,125
2022-07-27T06:53:22.755Z,120
2022-07-27T06:54:16.493Z,120
2022-07-27T06:55:16.495Z,115
2022-07-27T06:56:16.482Z,100
2022-07-27T06:57:17.090Z,85
2022-07-27T06:58:16.974Z,85
2022-07-27T06:59:18.190Z,85
2022-07-27T07:00:16.456Z,85
2022-07-27T07:01:17.181Z,80
2022-07-27T07:02:16.682Z,80
2022-07-27T07:03:16.177Z,85
2022-07-27T07:04:17.351Z,85
2022-07-27T07:05:16.915Z,95
2022-07-27T07:06:16.656Z,105
2022-07-27T07:07:16.909Z,115
2022-07-27T07:08:16.119Z,120
2022-07-27T07:09:19.116Z,120
2022-07-27T07:10:16.387Z,120
2022-07-27T07:11:15.847Z,115
2022-07-27T07:12:16.346Z,110
2022-07-27T07:13:16.600Z,90
2022-07-27T07:14:16.587Z,85
2022-07-27T07:15:16.069Z,80
2022-07-27T07:16:16.765Z,75
2022-07-27T07:17:16.600Z,70
2022-07-27T07:18:15.784Z,65
2022-07-27T07:19:17.404Z,65
2022-07-27T07:20:16.543Z,65
2022-07-27T07:21:16.279Z,65
2022-07-27T07:22:16.521Z,70
2022-07-27T07:23:16.518Z,65
2022-07-27T07:24:16.896Z,70
2022-07-27T07:25:16.494Z,65
2022-07-27T07:26:15.980Z,65
2022-07-27T07:27:16.243Z,80
2022-07-27T07:28:16.237Z,85
2022-07-27T07:29:17.633Z,80
2022-07-27T07:30:16.228Z,85
2022-07-27T07:31:16.405Z,80
2022-07-27T07:32:19.165Z,75
2022-07-27T07:33:16.175Z,80
2022-07-27T07:34:16.683Z,75
2022-07-27T07:35:16.682Z,85
2022-07-27T07:36:23.109Z,95
2022-07-27T07:37:16.661Z,100
2022-07-27T07:38:16.488Z,105
2022-07-27T07:39:17.809Z,105
2022-07-27T07:40:51.576Z,105
2022-07-27T07:41:16.363Z,105
2022-07-27T07:42:19.992Z,90
2022-07-27T07:43:16.673Z,85
2022-07-27T07:44:16.367Z,85
2022-07-27T07:45:15.822Z,90
2022-07-27T07:46:16.956Z,95
2022-07-27T07:47:16.933Z,95
2022-07-27T07:48:16.869Z,105
2022-07-27T07:49:18.756Z,115
2022-07-27T07:50:16.056Z,130
2022-07-27T07:51:15.781Z,155
2022-07-27T07:52:16.024Z,175
2022-07-27T07:53:19.177Z,150
2022-07-27T07:54:16.008Z,135
2022-07-27T07:55:16.226Z,125
2022-07-27T07:56:16.274Z,140
2022-07-27T07:57:15.986Z,175
2022-07-27T07:58:16.242Z,195
2022-07-27T07:59:17.634Z,205
2022-07-27T08:00:16.214Z,205
2022-07-27T08:01:15.996Z,175
2022-07-27T08:02:16.791Z,155
2022-07-27T08:03:16.264Z,135
2022-07-27T08:04:15.928Z,125
2022-07-27T08:05:16.187Z,145
2022-07-27T08:06:16.428Z,170
2022-07-27T08:07:16.717Z,190
2022-07-27T08:08:16.179Z,185
2022-07-27T08:09:17.346Z,180
2022-07-27T08:10:15.876Z,195
2022-07-27T08:11:16.146Z,225
2022-07-27T08:12:15.607Z,260
2022-07-27T08:13:22.572Z,265
2022-07-27T08:14:15.880Z,240
2022-07-27T08:15:15.848Z,230
2022-07-27T08:16:16.643Z,225
2022-07-27T08:17:15.839Z,235
2022-07-27T08:18:15.822Z,240
2022-07-27T08:19:20.219Z,240
2022-07-27T08:20:15.824Z,225
2022-07-27T08:21:15.804Z,235
2022-07-27T08:22:15.794Z,250
2022-07-27T08:23:16.053Z,250
2022-07-27T08:24:15.777Z,240
2022-07-27T08:25:16.085Z,230
2022-07-27T08:26:17.116Z,230
2022-07-27T08:27:15.503Z,230
2022-07-27T08:28:17.002Z,235
2022-07-27T08:29:38.802Z,235
2022-07-27T08:30:20.249Z,230
2022-07-27T08:31:58.605Z,235
2022-07-27T08:32:16.184Z,235
2022-07-27T08:33:15.986Z,240
2022-07-27T08:34:15.209Z,240
2022-07-27T08:35:15.714Z,245
2022-07-27T08:36:15.956Z,245
2022-07-27T08:37:21.891Z,245
2022-07-27T08:38:16.207Z,260
2022-07-27T08:40:57.150Z,250
2022-07-27T08:41:55.751Z,240
2022-07-27T08:42:59.674Z,225
2022-07-27T08:43:56.053Z,225
2022-07-27T08:44:55.717Z,230
2022-07-27T08:45:55.699Z,230
2022-07-27T08:46:56.363Z,230
2022-07-27T08:47:55.951Z,235
2022-07-27T08:48:55.808Z,240
2022-07-27T08:49:58.699Z,230
2022-07-27T08:50:55.958Z,215
2022-07-27T08:51:56.791Z,220
2022-07-27T08:52:55.663Z,215
2022-07-27T08:54:02.578Z,205
2022-07-27T08:54:56.149Z,200
2022-07-27T08:55:55.643Z,200
2022-07-27T08:56:55.934Z,195
2022-07-27T08:58:03.314Z,200
2022-07-27T08:58:55.382Z,205
2022-07-27T08:59:56.147Z,210
2022-07-27T09:00:55.755Z,220
2022-07-27T09:01:56.194Z,230
2022-07-27T09:02:56.771Z,245
2022-07-27T09:03:56.082Z,255
2022-07-27T09:04:55.824Z,265
2022-07-27T09:05:55.842Z,270
2022-07-27T09:07:02.578Z,270
2022-07-27T09:07:55.819Z,270
2022-07-27T09:09:02.580Z,275
2022-07-27T09:09:56.065Z,280
2022-07-27T09:10:56.080Z,285
2022-07-27T09:11:56.047Z,290
2022-07-27T09:12:55.518Z,295
2022-07-27T09:13:55.831Z,285
2022-07-27T09:15:02.000Z,275
2022-07-27T09:16:44.422Z,260
2022-07-27T09:17:57.449Z,245
2022-07-27T09:19:14.583Z,235
2022-07-27T09:20:19.835Z,220
2022-07-27T09:21:13.475Z,210
2022-07-27T09:22:13.463Z,210
2022-07-27T09:23:13.204Z,205
2022-07-27T09:24:56.884Z,200
2022-07-27T09:25:13.451Z,200
2022-07-27T09:26:38.935Z,195
2022-07-27T09:27:13.199Z,190
2022-07-27T09:28:13.220Z,185
2022-07-27T09:29:14.943Z,180
2022-07-27T09:30:13.168Z,175
2022-07-27T09:31:14.082Z,180
2022-07-27T09:32:13.144Z,190
2022-07-27T09:33:13.655Z,205
2022-07-27T09:34:13.674Z,215
2022-07-27T09:35:13.666Z,220
2022-07-27T09:36:13.917Z,225
2022-07-27T09:37:15.263Z,240
2022-07-27T09:38:14.242Z,265
2022-07-27T09:39:14.139Z,290
2022-07-27T09:40:13.897Z,300
2022-07-27T09:41:18.235Z,305
2022-07-27T09:44:59.200Z,350
2022-07-27T09:45:53.942Z,370
2022-07-27T09:46:38.376Z,390
2022-07-27T09:47:40.157Z,410
2022-07-27T09:48:38.455Z,430
2022-07-27T09:49:38.141Z,455
2022-07-27T09:51:02.115Z,485
2022-07-27T09:52:09.260Z,490
2022-07-27T09:52:41.267Z,475
2022-07-27T09:53:51.645Z,450
2022-07-27T09:54:37.556Z,440
2022-07-27T09:55:37.541Z,425
2022-07-27T09:56:37.298Z,420
2022-07-27T09:57:37.804Z,415
2022-07-27T09:58:37.529Z,420
2022-07-27T09:59:38.035Z,425
2022-07-27T10:00:37.799Z,430
2022-07-27T10:01:40.934Z,435
2022-07-27T10:02:37.630Z,440
2022-07-27T10:03:37.760Z,435
2022-07-27T10:04:38.388Z,430
2022-07-27T10:05:38.049Z,430
2022-07-27T10:07:13.583Z,420
2022-07-27T10:07:37.749Z,420
2022-07-27T10:08:37.231Z,425
2022-07-27T10:09:37.864Z,430
2022-07-27T10:10:37.721Z,425
2022-07-27T10:11:37.995Z,430
2022-07-27T10:12:37.705Z,440
2022-07-27T10:13:48.023Z,445
2022-07-27T10:14:37.760Z,445
2022-07-27T10:15:38.090Z,445
2022-07-27T10:16:37.954Z,435
2022-07-27T10:17:37.697Z,425
2022-07-27T10:18:40.242Z,420
2022-07-27T10:19:38.771Z,415
2022-07-27T10:20:37.433Z,410
2022-07-27T10:21:37.409Z,400
2022-07-27T10:22:37.427Z,380
2022-07-27T10:23:37.154Z,370
2022-07-27T10:24:37.561Z,360
2022-07-27T10:25:46.953Z,355
2022-07-27T10:26:37.666Z,330
2022-07-27T10:27:38.689Z,305
2022-07-27T10:28:38.408Z,280
2022-07-27T10:29:38.677Z,250
2022-07-27T10:30:38.519Z,235
2022-07-27T10:31:39.284Z,225
2022-07-27T10:32:38.673Z,205
2022-07-27T10:33:38.899Z,190
2022-07-27T10:34:38.384Z,195
2022-07-27T10:35:38.643Z,200
2022-07-27T10:36:38.684Z,205
2022-07-27T10:37:38.381Z,205
2022-07-27T10:38:39.263Z,195
2022-07-27T10:39:38.644Z,200
2022-07-27T10:40:38.372Z,205
2022-07-27T10:41:38.891Z,205
2022-07-27T10:42:38.650Z,205
2022-07-27T10:43:38.075Z,190
2022-07-27T10:44:38.592Z,185
2022-07-27T10:46:09.609Z,180
2022-07-27T10:46:38.944Z,180
2022-07-27T10:47:38.575Z,185
2022-07-27T10:48:41.624Z,195
2022-07-27T10:49:44.743Z,205
2022-07-27T10:50:38.571Z,225
2022-07-27T10:51:38.302Z,230
2022-07-27T10:52:38.548Z,215
2022-07-27T10:54:26.504Z,195
2022-07-27T10:54:42.179Z,195
2022-07-27T10:55:39.301Z,190
2022-07-27T10:56:38.581Z,185
2022-07-27T10:57:38.544Z,190
2022-07-27T10:58:38.281Z,205
2022-07-27T11:00:24.690Z,255
2022-07-27T11:01:38.968Z,260
2022-07-27T11:02:38.525Z,245
2022-07-27T11:03:46.240Z,230
2022-07-27T11:04:38.493Z,235
2022-07-27T11:07:30.123Z,250
2022-07-27T11:10:02.821Z,235
2022-07-27T11:10:14.895Z,250
2022-07-27T11:11:14.021Z,265
2022-07-27T11:12:14.526Z,250
2022-07-27T11:13:19.210Z,255
2022-07-27T11:14:15.282Z,245
2022-07-27T11:15:14.523Z,235
2022-07-27T11:18:03.216Z,230
2022-07-27T11:18:17.732Z,225
2022-07-27T11:19:14.943Z,220
2022-07-27T11:20:15.987Z,215
2022-07-27T11:21:14.711Z,230
2022-07-27T11:23:52.652Z,225
2022-07-27T11:24:02.962Z,220
2022-07-27T11:25:03.454Z,210
2022-07-27T11:26:02.954Z,220
2022-07-27T11:27:20.972Z,240
2022-07-27T11:28:03.192Z,220
2022-07-27T11:29:02.929Z,190
2022-07-27T11:30:03.444Z,175
2022-07-27T11:31:06.275Z,175
2022-07-27T11:32:07.223Z,175
2022-07-27T11:33:02.989Z,175
2022-07-27T11:34:02.912Z,180
2022-07-27T11:35:06.503Z,185
2022-07-27T11:36:03.157Z,190
2022-07-27T11:37:03.384Z,190
2022-07-27T11:38:02.916Z,190
2022-07-27T11:39:03.153Z,210
2022-07-27T11:42:09.171Z,175
2022-07-27T11:42:30.863Z,155
2022-07-27T11:43:36.798Z,140
2022-07-27T11:44:24.802Z,160
2022-07-27T11:45:22.189Z,165
2022-07-27T11:46:23.238Z,175
2022-07-27T11:47:22.204Z,195
2022-07-27T11:48:22.747Z,205
2022-07-27T11:49:23.739Z,210
2022-07-27T11:50:22.574Z,220
2022-07-27T11:51:22.518Z,235
2022-07-27T11:52:22.145Z,245
2022-07-27T11:53:22.413Z,225
2022-07-27T11:54:22.414Z,200
2022-07-27T11:55:23.026Z,205
2022-07-27T11:56:21.644Z,205
2022-07-27T11:57:22.152Z,205
2022-07-27T11:58:22.143Z,225
2022-07-27T11:59:24.520Z,260
2022-07-27T12:00:22.667Z,265
2022-07-27T12:01:22.170Z,285
2022-07-27T12:02:23.076Z,295
2022-07-27T12:03:22.456Z,325
2022-07-27T12:04:22.400Z,335
2022-07-27T12:05:22.696Z,320
2022-07-27T12:06:21.853Z,350
2022-07-27T12:07:24.860Z,360
2022-07-27T12:08:22.102Z,380
2022-07-27T12:09:23.520Z,350
2022-07-27T12:10:22.378Z,315
2022-07-27T12:11:26.024Z,295
2022-07-27T12:12:22.087Z,290
2022-07-27T12:13:22.597Z,320
2022-07-27T12:14:22.594Z,290
2022-07-27T12:15:54.282Z,280
2022-07-27T12:16:27.888Z,270
2022-07-27T12:17:22.056Z,280
2022-07-27T12:18:22.068Z,300
2022-07-27T12:19:23.325Z,335
2022-07-27T12:20:22.121Z,365
2022-07-27T12:21:22.307Z,365
2022-07-27T12:22:22.310Z,365
2022-07-27T12:23:21.800Z,355
2022-07-27T12:24:22.039Z,335
2022-07-27T12:25:25.787Z,320
2022-07-27T12:26:22.304Z,310
2022-07-27T12:27:22.293Z,315
2022-07-27T12:28:22.353Z,350
2022-07-27T12:29:23.127Z,320
2022-07-27T12:30:22.212Z,285
2022-07-27T12:31:22.555Z,235
2022-07-27T12:32:21.771Z,215
2022-07-27T12:33:22.459Z,225
2022-07-27T12:34:22.020Z,240
2022-07-27T12:35:22.322Z,240
2022-07-27T12:36:22.262Z,260
2022-07-27T12:37:21.743Z,295
2022-07-27T12:38:22.271Z,300
2022-07-27T12:39:23.190Z,275
2022-07-27T12:40:22.926Z,275
2022-07-27T12:41:22.257Z,290
2022-07-27T12:42:22.538Z,305
2022-07-27T12:43:22.520Z,350
2022-07-27T12:44:22.506Z,355
2022-07-27T12:45:22.264Z,345
2022-07-27T12:46:23.325Z,340
2022-07-27T12:47:28.196Z,345
2022-07-27T12:48:22.234Z,350
2022-07-27T12:49:24.381Z,360
2022-07-27T12:50:22.484Z,330
2022-07-27T12:51:21.961Z,330
2022-07-27T12:52:22.272Z,330
2022-07-27T12:53:22.475Z,315
2022-07-27T12:54:22.219Z,295
2022-07-27T12:55:25.438Z,275
2022-07-27T12:56:33.743Z,250
2022-07-27T12:57:59.905Z,205
2022-07-27T12:58:22.256Z,205
2022-07-27T12:59:22.973Z,210
2022-07-27T13:00:23.017Z,225
2022-07-27T13:01:24.150Z,240
2022-07-27T13:02:22.955Z,275
2022-07-27T13:03:22.233Z,305
2022-07-27T13:04:22.236Z,325
2022-07-27T13:05:22.832Z,340
2022-07-27T13:06:22.739Z,345
2022-07-27T13:07:23.687Z,360
2022-07-27T13:08:25.736Z,325
2022-07-27T13:09:23.289Z,280
2022-07-27T13:10:22.468Z,250
2022-07-27T13:11:22.948Z,255
2022-07-27T13:12:22.465Z,255
2022-07-27T13:13:22.971Z,230
2022-07-27T13:14:23.001Z,210
2022-07-27T13:15:22.470Z,195
2022-07-27T13:16:23.123Z,180
2022-07-27T13:17:22.701Z,170
2022-07-27T13:18:29.819Z,165
2022-07-27T13:19:23.860Z,160
2022-07-27T13:20:22.455Z,160
2022-07-27T13:21:22.187Z,165
2022-07-27T13:22:22.706Z,190
2022-07-27T13:23:22.445Z,210
2022-07-27T13:24:23.784Z,245
2022-07-27T13:25:25.853Z,280
2022-07-27T13:26:22.671Z,285
2022-07-27T13:27:22.927Z,280
2022-07-27T13:28:22.942Z,280
2022-07-27T13:29:23.402Z,275
2022-07-27T13:30:22.479Z,265
2022-07-27T13:31:22.875Z,245
2022-07-27T13:32:25.372Z,240
2022-07-27T13:33:22.405Z,255
2022-07-27T13:34:22.404Z,275
2022-07-27T13:35:22.409Z,260
2022-07-27T13:36:22.938Z,265
2022-07-27T13:37:22.668Z,260
2022-07-27T13:38:28.886Z,250
2022-07-27T13:39:23.364Z,240
2022-07-27T13:40:22.677Z,230
2022-07-27T13:41:22.890Z,220
2022-07-27T13:42:22.638Z,215
2022-07-27T13:43:22.885Z,220
2022-07-27T13:45:16.464Z,250
2022-07-27T13:45:27.515Z,255
2022-07-27T13:46:28.060Z,275
2022-07-27T13:47:27.520Z,270
2022-07-27T13:48:26.752Z,270
2022-07-27T13:49:27.551Z,265
2022-07-27T13:50:30.204Z,265
2022-07-27T13:51:27.255Z,255
2022-07-27T13:52:27.005Z,250
2022-07-27T13:53:27.249Z,245
2022-07-27T13:54:26.728Z,255
2022-07-27T13:55:33.039Z,260
2022-07-27T13:56:33.177Z,270
2022-07-27T13:57:27.237Z,270
2022-07-27T13:58:27.238Z,275
2022-07-27T13:59:26.975Z,285
2022-07-27T14:00:27.255Z,290
2022-07-27T14:01:27.656Z,310
2022-07-27T14:02:34.411Z,315
2022-07-27T14:03:32.171Z,310
2022-07-27T14:04:31.190Z,280
2022-07-27T14:05:37.053Z,250
2022-07-27T14:06:32.202Z,250
2022-07-27T14:07:32.896Z,255
2022-07-27T14:08:27.237Z,290
2022-07-27T14:09:27.767Z,265
2022-07-27T14:10:26.955Z,255
2022-07-27T14:11:27.889Z,255
2022-07-27T14:12:26.945Z,210
2022-07-27T14:13:27.201Z,210
2022-07-27T14:14:34.374Z,210
2022-07-27T14:15:26.677Z,210
2022-07-27T14:16:27.246Z,225
2022-07-27T14:17:27.179Z,220
2022-07-27T14:18:26.962Z,220
2022-07-27T14:19:28.437Z,225
2022-07-27T14:20:26.928Z,220
2022-07-27T14:21:27.176Z,225
2022-07-27T14:22:27.181Z,240
2022-07-27T14:23:26.647Z,235
2022-07-27T14:24:26.908Z,235
2022-07-27T14:25:26.909Z,235
2022-07-27T14:26:28.053Z,240
2022-07-27T14:27:33.629Z,240
2022-07-27T14:28:27.585Z,260
2022-07-27T14:29:27.398Z,270
2022-07-27T14:30:30.365Z,295
2022-07-27T14:31:27.606Z,305
2022-07-27T14:32:27.150Z,290
2022-07-27T14:33:29.941Z,270
2022-07-27T14:34:27.134Z,240
2022-07-27T14:35:27.398Z,215
2022-07-27T14:36:27.140Z,205
2022-07-27T14:37:26.886Z,215
2022-07-27T14:38:39.352Z,210